Time;durP1;ratioP1;P1;durP2;ratioP2;P2;SDS_P1;SDS_P2;PMS_P1;PMS_P2;Temp;Humidity;BMP_temperature;BMP_pressure;BME280_temperature;BME280_humidity;BME280_pressure;Samples;Min_cycle;Max_cycle;Signal;HPM_P1;HPM_P2
2021/05/20 00:00:46;;;;;;;4.45;3.45;;;14.90;60.10;;;;;;4165979;28;20032;-63
2021/05/20 00:02:49;;;;;;;4.10;3.38;;;14.90;60.10;;;;;;4162452;28;20650;-64
2021/05/20 00:04:51;;;;;;;5.88;3.70;;;14.90;60.10;;;;;;4164368;28;20033;-64
2021/05/20 00:06:53;;;;;;;5.90;3.58;;;14.90;60.10;;;;;;4166300;28;20577;-64
2021/05/20 00:08:55;;;;;;;7.40;3.60;;;14.90;60.10;;;;;;4161002;28;20029;-64
2021/05/20 00:10:58;;;;;;;5.35;3.58;;;14.90;60.10;;;;;;4163809;28;20048;-64
2021/05/20 00:13:00;;;;;;;4.57;3.20;;;14.90;60.10;;;;;;4166300;28;20581;-64
2021/05/20 00:15:04;;;;;;;4.10;3.30;;;14.90;60.10;;;;;;4162480;28;20117;-65
2021/05/20 00:17:06;;;;;;;4.88;3.50;;;14.90;60.10;;;;;;4164539;28;20376;-64
2021/05/20 00:19:08;;;;;;;4.10;3.42;;;14.90;60.20;;;;;;4164905;28;20298;-63
2021/05/20 00:21:10;;;;;;;3.92;3.25;;;14.90;60.10;;;;;;4163893;28;20043;-64
2021/05/20 00:23:12;;;;;;;4.72;3.33;;;14.90;60.10;;;;;;4165053;28;20439;-64
2021/05/20 00:25:14;;;;;;;3.83;3.15;;;14.90;60.10;;;;;;4166041;28;20040;-64
2021/05/20 00:27:16;;;;;;;4.03;3.47;;;14.90;60.10;;;;;;4161901;28;20502;-64
2021/05/20 00:29:18;;;;;;;4.40;3.50;;;14.90;60.10;;;;;;4143533;28;20534;-64
2021/05/20 00:31:21;;;;;;;4.72;3.20;;;14.90;60.10;;;;;;4167595;28;20045;-64
2021/05/20 00:33:23;;;;;;;4.60;3.08;;;14.90;60.10;;;;;;4162720;28;20033;-64
2021/05/20 00:35:25;;;;;;;4.50;3.03;;;14.90;60.10;;;;;;4164066;28;20052;-64
2021/05/20 00:37:27;;;;;;;3.95;3.03;;;14.80;60.10;;;;;;4165198;28;20041;-65
2021/05/20 00:39:29;;;;;;;5.45;3.17;;;14.80;60.00;;;;;;4164435;28;20993;-64
2021/05/20 00:41:32;;;;;;;3.30;2.90;;;14.90;60.10;;;;;;4144246;28;20041;-65
2021/05/20 00:43:34;;;;;;;3.75;2.90;;;14.90;60.20;;;;;;4163077;28;21022;-64
2021/05/20 00:45:37;;;;;;;3.58;2.80;;;14.90;60.10;;;;;;4166245;28;20584;-65
2021/05/20 00:47:39;;;;;;;4.55;3.25;;;14.90;60.10;;;;;;4166738;28;20041;-65
2021/05/20 00:49:41;;;;;;;3.60;2.72;;;14.90;60.20;;;;;;4169009;28;20037;-65
2021/05/20 00:51:45;;;;;;;3.97;2.95;;;14.90;60.10;;;;;;4173060;28;20029;-65
2021/05/20 00:53:51;;;;;;;3.67;3.00;;;14.90;60.20;;;;;;4175812;28;20123;-65
2021/05/20 00:55:54;;;;;;;3.58;2.70;;;14.80;60.20;;;;;;4169853;28;21194;-64
2021/05/20 00:57:56;;;;;;;3.57;2.90;;;14.80;60.30;;;;;;4166816;28;20020;-65
2021/05/20 01:00:10;;;;;;;3.50;2.65;;;14.90;60.40;;;;;;4163208;28;21234;-64
2021/05/20 01:02:12;;;;;;;;;;;14.80;60.30;;;;;;4164301;28;20045;-64
2021/05/20 01:04:14;;;;;;;3.15;2.35;;;14.80;60.30;;;;;;4165988;28;19912;-64
2021/05/20 01:06:16;;;;;;;3.50;2.60;;;14.80;60.40;;;;;;4163317;28;20040;-64
2021/05/20 01:08:18;;;;;;;4.40;3.10;;;14.80;60.40;;;;;;4162295;28;20071;-64
2021/05/20 01:10:21;;;;;;;3.78;2.65;;;14.80;60.40;;;;;;4161954;28;20213;-64
2021/05/20 01:12:23;;;;;;;3.75;2.47;;;14.80;60.30;;;;;;4162029;28;20421;-66
2021/05/20 01:14:25;;;;;;;4.35;2.90;;;14.80;60.30;;;;;;4164768;28;20047;-66
2021/05/20 01:16:27;;;;;;;2.75;2.30;;;14.80;60.30;;;;;;4162288;28;20573;-64
2021/05/20 01:18:29;;;;;;;3.30;2.50;;;14.80;60.20;;;;;;4160977;28;20140;-65
2021/05/20 01:20:38;;;;;;;3.25;2.47;;;14.80;60.20;;;;;;4163237;28;20888;-67
2021/05/20 01:22:40;;;;;;;3.88;2.40;;;14.80;60.20;;;;;;4162503;28;20782;-66
2021/05/20 01:24:43;;;;;;;2.90;2.13;;;14.80;60.20;;;;;;4162973;28;20029;-65
2021/05/20 01:26:46;;;;;;;3.83;2.10;;;14.80;60.20;;;;;;4163685;28;20194;-64
2021/05/20 01:28:48;;;;;;;2.72;2.20;;;14.80;60.20;;;;;;4160370;28;20583;-65
2021/05/20 01:30:51;;;;;;;3.17;2.42;;;14.80;60.20;;;;;;4166849;28;20425;-66
2021/05/20 01:32:53;;;;;;;2.50;2.17;;;14.80;60.20;;;;;;4163831;28;20558;-65
2021/05/20 01:34:58;;;;;;;2.70;2.20;;;14.80;60.20;;;;;;4162894;28;20040;-66
2021/05/20 01:37:02;;;;;;;2.47;2.10;;;14.90;60.20;;;;;;4165180;28;20028;-66
2021/05/20 01:39:05;;;;;;;2.80;2.00;;;14.90;60.20;;;;;;4162511;28;20047;-66
2021/05/20 01:41:10;;;;;;;2.63;2.17;;;14.90;60.10;;;;;;4161973;28;20044;-67
2021/05/20 01:43:12;;;;;;;2.58;1.88;;;14.90;60.10;;;;;;4162988;28;20731;-63
2021/05/20 01:45:14;;;;;;;2.03;1.83;;;14.90;60.10;;;;;;4161463;28;20045;-64
2021/05/20 01:47:17;;;;;;;3.13;2.13;;;14.90;60.10;;;;;;4164457;28;20128;-63
2021/05/20 01:49:19;;;;;;;3.30;2.20;;;14.90;60.10;;;;;;4160730;28;20048;-64
2021/05/20 01:51:23;;;;;;;2.63;2.30;;;15.00;60.10;;;;;;4163073;28;20117;-64
2021/05/20 01:53:25;;;;;;;3.13;2.30;;;14.90;60.00;;;;;;4161219;28;20068;-65
2021/05/20 01:55:27;;;;;;;3.72;2.50;;;14.90;60.00;;;;;;4162927;28;20895;-64
2021/05/20 01:57:29;;;;;;;3.78;2.30;;;14.90;60.00;;;;;;4162895;28;20602;-65
2021/05/20 01:59:31;;;;;;;2.65;1.90;;;15.00;60.10;;;;;;4161256;28;20052;-66
2021/05/20 02:01:34;;;;;;;2.70;2.08;;;15.00;60.00;;;;;;4165038;28;20051;-65
2021/05/20 02:03:37;;;;;;;3.17;2.20;;;15.00;59.90;;;;;;4161851;28;21387;-65
2021/05/20 02:05:39;;;;;;;3.25;2.28;;;15.00;59.90;;;;;;4163202;28;20033;-65
2021/05/20 02:07:41;;;;;;;3.17;2.20;;;15.00;59.80;;;;;;4160469;28;20050;-66
2021/05/20 02:09:43;;;;;;;3.28;2.35;;;15.00;59.80;;;;;;4164657;28;20031;-65
2021/05/20 02:11:45;;;;;;;2.85;2.47;;;15.00;59.70;;;;;;4162360;28;20120;-65
2021/05/20 02:13:47;;;;;;;3.20;2.20;;;15.10;59.80;;;;;;4161692;28;20037;-65
2021/05/20 02:15:49;;;;;;;3.15;2.28;;;15.10;59.80;;;;;;4165093;28;20037;-65
2021/05/20 02:17:53;;;;;;;3.55;2.40;;;15.10;59.80;;;;;;4163435;28;20037;-64
2021/05/20 02:19:55;;;;;;;2.83;2.38;;;15.10;59.70;;;;;;4143730;28;20148;-64
2021/05/20 02:21:57;;;;;;;2.65;2.13;;;15.20;59.80;;;;;;4164870;28;20409;-65
2021/05/20 02:23:59;;;;;;;4.80;2.40;;;15.20;59.70;;;;;;4162644;28;20048;-64
2021/05/20 02:26:01;;;;;;;3.30;2.65;;;15.20;59.80;;;;;;4164472;28;20135;-65
2021/05/20 02:28:04;;;;;;;3.38;2.47;;;15.20;59.80;;;;;;4166004;28;20066;-65
2021/05/20 02:30:07;;;;;;;3.07;2.40;;;15.20;59.80;;;;;;4166036;28;20497;-63
2021/05/20 02:32:09;;;;;;;4.03;2.83;;;15.20;59.80;;;;;;4164019;28;20513;-66
2021/05/20 02:34:12;;;;;;;3.47;2.50;;;15.30;59.90;;;;;;4169022;28;20256;-66
2021/05/20 02:36:14;;;;;;;3.17;2.27;;;15.30;59.80;;;;;;4164420;28;20662;-65
2021/05/20 02:38:16;;;;;;;3.08;2.47;;;15.30;59.80;;;;;;4163724;28;20327;-64
2021/05/20 02:40:19;;;;;;;3.13;2.75;;;15.30;59.80;;;;;;4166078;28;20186;-64
2021/05/20 02:42:21;;;;;;;3.08;2.55;;;15.30;59.80;;;;;;4167115;28;20616;-65
2021/05/20 02:44:24;;;;;;;3.70;2.70;;;15.30;59.80;;;;;;4164691;28;20068;-65
2021/05/20 02:46:27;;;;;;;3.40;2.53;;;15.40;59.80;;;;;;4166822;28;20390;-65
2021/05/20 02:48:29;;;;;;;2.80;2.42;;;15.40;59.80;;;;;;4164097;28;20044;-65
2021/05/20 02:50:31;;;;;;;4.82;2.70;;;15.40;59.80;;;;;;4165427;28;20438;-65
2021/05/20 02:52:33;;;;;;;3.78;2.92;;;15.40;59.80;;;;;;4166761;28;20198;-65
2021/05/20 02:54:36;;;;;;;3.85;2.70;;;15.50;59.80;;;;;;4164631;28;20051;-66
2021/05/20 02:56:38;;;;;;;4.03;2.65;;;15.50;59.80;;;;;;4166655;28;20683;-64
2021/05/20 02:58:40;;;;;;;3.25;2.40;;;15.50;59.70;;;;;;4165909;28;20037;-64
2021/05/20 03:00:45;;;;;;;3.25;2.42;;;15.60;59.70;;;;;;4169264;28;20025;-65
2021/05/20 03:02:50;;;;;;;3.80;3.00;;;15.60;59.60;;;;;;4162412;28;20049;-65
2021/05/20 03:04:53;;;;;;;3.28;2.58;;;15.60;59.60;;;;;;4167172;28;20024;-64
2021/05/20 03:06:55;;;;;;;3.20;2.47;;;15.60;59.50;;;;;;4164368;28;20401;-65
2021/05/20 03:08:57;;;;;;;2.85;2.25;;;15.70;59.50;;;;;;4147562;28;20037;-64
2021/05/20 03:10:59;;;;;;;3.90;2.50;;;15.70;59.50;;;;;;4164421;28;20122;-64
2021/05/20 03:13:02;;;;;;;2.95;2.40;;;15.70;59.40;;;;;;4163253;28;20032;-65
2021/05/20 03:15:05;;;;;;;3.00;2.60;;;15.70;59.50;;;;;;4166627;28;20151;-64
2021/05/20 03:17:11;;;;;;;;;;;15.70;59.50;;;;;;4165207;28;20032;-65
2021/05/20 03:19:13;;;;;;;3.78;2.70;;;15.70;59.40;;;;;;4166193;28;19932;-64
2021/05/20 03:21:15;;;;;;;3.10;2.38;;;15.70;59.40;;;;;;4164782;28;20161;-66
2021/05/20 03:23:18;;;;;;;3.42;2.47;;;15.70;59.40;;;;;;4162720;28;20510;-66
2021/05/20 03:25:20;;;;;;;3.30;2.40;;;15.70;59.40;;;;;;4166349;28;20140;-67
2021/05/20 03:27:22;;;;;;;3.22;2.42;;;15.70;59.40;;;;;;4164243;28;20033;-66
2021/05/20 03:29:24;;;;;;;3.65;2.40;;;15.80;59.40;;;;;;4165641;28;20041;-67
2021/05/20 03:31:27;;;;;;;2.70;2.15;;;15.80;59.40;;;;;;4166311;28;20453;-66
2021/05/20 03:33:29;;;;;;;3.00;2.30;;;15.80;59.30;;;;;;4163416;28;20312;-65
2021/05/20 03:35:31;;;;;;;2.40;2.20;;;15.80;59.20;;;;;;4164574;28;20553;-65
2021/05/20 03:37:34;;;;;;;4.22;2.72;;;15.90;59.00;;;;;;4165920;28;20418;-65
2021/05/20 03:39:36;;;;;;;2.90;2.33;;;15.90;59.10;;;;;;4166053;28;20102;-64
2021/05/20 03:41:39;;;;;;;2.85;2.40;;;16.00;59.10;;;;;;4163433;28;20049;-65
2021/05/20 03:43:47;;;;;;;4.43;2.20;;;16.00;59.00;;;;;;4163446;28;20370;-64
2021/05/20 03:45:49;;;;;;;2.60;2.17;;;16.00;58.80;;;;;;4165223;28;20044;-64
2021/05/20 03:47:51;;;;;;;3.30;2.40;;;16.10;58.80;;;;;;4163225;28;20048;-64
2021/05/20 03:49:53;;;;;;;3.30;2.47;;;16.20;58.80;;;;;;4165229;28;20108;-64
2021/05/20 03:51:55;;;;;;;3.25;2.20;;;16.20;58.50;;;;;;4167086;28;20040;-64
2021/05/20 03:53:58;;;;;;;4.43;2.40;;;16.30;58.50;;;;;;4163124;28;20036;-65
2021/05/20 03:56:01;;;;;;;3.97;2.40;;;16.40;58.50;;;;;;4163210;28;20112;-65
2021/05/20 03:58:03;;;;;;;3.42;2.35;;;16.40;58.40;;;;;;4165283;28;20328;-64
2021/05/20 04:00:06;;;;;;;3.70;2.35;;;16.50;58.20;;;;;;4163923;28;20093;-64
2021/05/20 04:02:08;;;;;;;3.50;2.30;;;16.60;57.90;;;;;;4163270;28;20041;-65
2021/05/20 04:04:13;;;;;;;3.38;2.47;;;16.60;57.90;;;;;;4165486;28;20032;-64
2021/05/20 04:06:15;;;;;;;3.00;2.45;;;16.70;58.00;;;;;;4164717;28;20560;-66
2021/05/20 04:08:17;;;;;;;3.13;2.53;;;16.80;57.70;;;;;;4161418;28;20110;-66
2021/05/20 04:10:19;;;;;;;3.50;2.38;;;16.80;57.60;;;;;;4164167;28;20036;-67
2021/05/20 04:12:21;;;;;;;4.25;2.38;;;16.90;57.50;;;;;;4165425;28;20333;-66
2021/05/20 04:14:23;;;;;;;2.65;2.20;;;16.90;57.40;;;;;;4164529;28;20689;-65
2021/05/20 04:16:28;;;;;;;2.92;2.28;;;17.00;57.40;;;;;;4166525;28;20616;-68
2021/05/20 04:18:31;;;;;;;3.50;2.35;;;16.90;57.50;;;;;;4163335;28;20033;-67
2021/05/20 04:20:33;;;;;;;3.22;2.53;;;17.00;57.60;;;;;;4162723;28;20477;-67
2021/05/20 04:22:35;;;;;;;2.78;2.30;;;17.00;57.40;;;;;;4164644;28;20356;-67
2021/05/20 04:24:37;;;;;;;2.67;2.28;;;17.10;57.50;;;;;;4163834;28;20184;-68
2021/05/20 04:26:39;;;;;;;3.92;2.30;;;17.20;57.50;;;;;;4163439;28;20048;-68
2021/05/20 04:28:41;;;;;;;3.42;2.80;;;17.20;57.40;;;;;;4164164;28;20048;-67
2021/05/20 04:30:44;;;;;;;3.13;2.83;;;17.30;57.30;;;;;;4164090;28;20045;-68
2021/05/20 04:32:47;;;;;;;4.20;3.40;;;17.40;57.20;;;;;;4163754;28;20362;-67
2021/05/20 04:34:49;;;;;;;3.90;3.10;;;17.50;57.20;;;;;;4162795;28;20043;-68
2021/05/20 04:36:51;;;;;;;4.47;3.13;;;17.50;57.10;;;;;;4165428;28;20664;-68
2021/05/20 04:38:53;;;;;;;3.78;2.80;;;17.60;57.00;;;;;;4145594;28;20454;-67
2021/05/20 04:40:55;;;;;;;3.55;2.88;;;17.70;56.90;;;;;;4161315;28;20596;-67
2021/05/20 04:42:57;;;;;;;2.90;2.53;;;17.70;56.70;;;;;;4162624;28;20033;-68
2021/05/20 04:44:59;;;;;;;3.53;2.60;;;17.80;56.60;;;;;;4163510;28;20044;-68
2021/05/20 04:47:02;;;;;;;3.47;2.80;;;17.80;56.50;;;;;;4154644;28;20188;-67
2021/05/20 04:49:13;;;;;;;3.58;2.95;;;17.90;56.50;;;;;;4158144;28;20102;-67
2021/05/20 04:51:17;;;;;;;3.67;2.80;;;18.00;56.30;;;;;;4155263;28;20798;-66
2021/05/20 04:53:19;;;;;;;3.33;2.55;;;18.00;56.30;;;;;;4157516;28;20067;-68
2021/05/20 04:55:21;;;;;;;2.90;2.45;;;18.10;56.30;;;;;;4159095;28;20036;-67
2021/05/20 04:57:23;;;;;;;4.05;2.80;;;18.10;56.10;;;;;;4155798;28;20044;-68
2021/05/20 04:59:25;;;;;;;3.50;2.60;;;18.10;56.20;;;;;;4158536;28;20121;-67
2021/05/20 05:01:28;;;;;;;2.97;2.45;;;18.20;56.30;;;;;;4160180;28;20422;-67
2021/05/20 05:03:30;;;;;;;3.08;2.30;;;18.20;56.20;;;;;;4156467;28;20083;-67
2021/05/20 05:05:33;;;;;;;2.85;2.20;;;18.30;56.50;;;;;;4158212;28;20044;-67
2021/05/20 05:07:35;;;;;;;2.40;2.20;;;18.20;56.40;;;;;;4155771;28;20036;-67
2021/05/20 05:09:37;;;;;;;2.00;1.80;;;18.30;56.30;;;;;;4159609;28;20072;-68
2021/05/20 05:11:39;;;;;;;2.35;1.90;;;18.30;56.30;;;;;;4155502;28;20033;-68
2021/05/20 05:13:41;;;;;;;2.90;2.10;;;18.30;56.20;;;;;;4158244;28;20093;-68
2021/05/20 05:15:43;;;;;;;2.63;2.10;;;18.40;56.40;;;;;;4160673;28;20850;-68
2021/05/20 05:17:45;;;;;;;4.22;2.40;;;18.40;56.30;;;;;;4157253;28;20123;-65
2021/05/20 05:19:47;;;;;;;3.30;2.40;;;18.40;56.20;;;;;;4165174;28;20044;-68
2021/05/20 05:21:49;;;;;;;4.55;2.42;;;18.40;56.10;;;;;;4165513;28;20162;-68
2021/05/20 05:23:53;;;;;;;2.90;2.28;;;18.50;55.90;;;;;;4171698;28;20041;-66
2021/05/20 05:26:38;;;;;;;2.90;2.30;;;18.50;55.90;;;;;;4188620;28;20523;-67
2021/05/20 05:28:55;;;;;;;3.15;2.45;;;18.50;55.80;;;;;;4142263;28;20689;-68
2021/05/20 05:30:57;;;;;;;3.97;2.38;;;18.60;55.70;;;;;;4142776;28;20414;-68
2021/05/20 05:32:59;;;;;;;3.70;2.75;;;18.60;55.50;;;;;;4141616;28;20584;-67
2021/05/20 05:35:01;;;;;;;3.42;2.30;;;18.60;55.50;;;;;;4139237;28;20049;-68
2021/05/20 05:37:03;;;;;;;3.03;2.38;;;18.60;55.40;;;;;;4141358;28;20514;-67
2021/05/20 05:39:06;;;;;;;3.67;2.40;;;18.60;55.30;;;;;;4138714;28;20041;-68
2021/05/20 05:41:08;;;;;;;3.15;2.42;;;18.60;55.30;;;;;;4138650;28;20159;-67
2021/05/20 05:43:10;;;;;;;4.65;2.50;;;18.60;55.20;;;;;;4141208;28;20683;-67
2021/05/20 05:45:13;;;;;;;3.22;2.33;;;18.60;55.20;;;;;;4135439;28;20141;-68
2021/05/20 05:47:15;;;;;;;2.78;2.22;;;18.50;55.30;;;;;;4140890;28;21043;-69
2021/05/20 05:49:25;;;;;;;2.65;2.22;;;18.60;55.40;;;;;;4139467;28;20048;-69
2021/05/20 05:51:30;;;;;;;2.60;2.20;;;18.50;55.20;;;;;;4139058;28;20046;-69
2021/05/20 05:53:32;;;;;;;2.60;2.10;;;18.50;55.40;;;;;;4136531;28;20137;-67
2021/05/20 05:55:35;;;;;;;2.65;2.17;;;18.50;55.50;;;;;;4135086;28;20745;-65
2021/05/20 05:57:37;;;;;;;3.08;2.58;;;18.50;55.50;;;;;;4139431;28;20674;-67
2021/05/20 05:59:39;;;;;;;4.13;2.40;;;18.50;55.50;;;;;;4136556;28;20130;-68
2021/05/20 06:01:41;;;;;;;3.30;2.22;;;18.50;55.50;;;;;;4137491;28;20561;-67
2021/05/20 06:03:44;;;;;;;3.40;2.50;;;18.50;55.30;;;;;;4141174;28;20044;-68
2021/05/20 06:05:49;;;;;;;4.05;2.40;;;18.40;55.30;;;;;;4134680;28;20037;-69
2021/05/20 06:07:51;;;;;;;3.50;2.30;;;18.40;55.40;;;;;;4137531;28;20114;-68
2021/05/20 06:09:54;;;;;;;6.78;2.60;;;18.40;55.30;;;;;;4140573;28;20621;-68
2021/05/20 06:11:57;;;;;;;3.83;2.75;;;18.40;55.50;;;;;;4135375;28;20124;-68
2021/05/20 06:14:04;;;;;;;3.25;2.58;;;18.40;55.50;;;;;;4136143;28;20538;-68
2021/05/20 06:16:07;;;;;;;3.10;2.55;;;18.30;55.30;;;;;;4138854;28;20087;-66
2021/05/20 06:18:09;;;;;;;2.45;1.90;;;18.30;55.20;;;;;;4136672;28;20057;-66
2021/05/20 06:20:11;;;;;;;2.38;2.10;;;18.30;55.20;;;;;;4137280;28;20118;-67
2021/05/20 06:22:13;;;;;;;2.55;2.08;;;18.30;55.30;;;;;;4140719;28;20033;-67
2021/05/20 06:24:15;;;;;;;3.85;2.08;;;18.30;56.00;;;;;;4136242;28;20073;-67
2021/05/20 06:26:18;;;;;;;4.00;2.22;;;18.30;56.10;;;;;;4136799;28;20106;-67
2021/05/20 06:28:20;;;;;;;3.30;2.20;;;18.30;56.20;;;;;;4139686;28;20029;-67
2021/05/20 06:30:22;;;;;;;3.38;2.50;;;18.30;56.30;;;;;;4138905;28;20552;-68
2021/05/20 06:32:24;;;;;;;3.58;2.30;;;18.30;56.10;;;;;;4134173;28;20059;-67
2021/05/20 06:34:27;;;;;;;2.80;2.15;;;18.30;55.80;;;;;;4139488;28;20211;-68
2021/05/20 06:36:29;;;;;;;3.15;2.50;;;18.30;55.80;;;;;;4138914;28;20295;-68
2021/05/20 06:38:31;;;;;;;2.70;2.03;;;18.20;55.80;;;;;;4138918;28;20057;-67
2021/05/20 06:40:33;;;;;;;3.78;2.22;;;18.20;55.60;;;;;;4139956;28;20044;-67
2021/05/20 06:42:35;;;;;;;5.85;2.50;;;18.20;55.90;;;;;;4137049;28;20123;-68
2021/05/20 06:44:38;;;;;;;2.97;2.25;;;18.20;55.90;;;;;;4136315;28;20514;-69
2021/05/20 06:46:40;;;;;;;2.90;2.13;;;18.20;56.30;;;;;;4134501;28;20037;-68
2021/05/20 06:48:42;;;;;;;2.90;2.10;;;18.20;56.40;;;;;;4140208;28;20148;-68
2021/05/20 06:50:45;;;;;;;4.10;2.28;;;18.20;56.50;;;;;;4136707;28;20036;-68
2021/05/20 06:52:50;;;;;;;5.10;2.40;;;18.20;56.70;;;;;;4137824;28;20428;-68
2021/05/20 06:54:52;;;;;;;4.13;2.17;;;18.20;56.70;;;;;;4137714;28;20028;-68
2021/05/20 06:56:58;;;;;;;3.03;2.40;;;18.10;56.70;;;;;;4136090;28;20045;-67
2021/05/20 07:01:20;;;;;;;4.28;2.15;;;18.10;56.80;;;;;;4137817;28;20048;-67
2021/05/20 07:03:22;;;;;;;2.22;1.88;;;18.10;57.00;;;;;;4134607;28;20061;-67
2021/05/20 07:05:25;;;;;;;3.33;2.22;;;18.10;57.00;;;;;;4134915;28;20441;-66
2021/05/20 07:07:28;;;;;;;2.13;1.80;;;18.10;57.10;;;;;;4137992;28;20033;-67
2021/05/20 07:09:34;;;;;;;2.75;2.20;;;18.00;57.10;;;;;;4140016;28;20045;-67
2021/05/20 07:11:36;;;;;;;3.00;2.13;;;18.00;57.10;;;;;;4135788;28;20077;-67
2021/05/20 07:13:40;;;;;;;2.28;1.90;;;18.00;57.20;;;;;;4139089;28;20541;-66
2021/05/20 07:15:42;;;;;;;3.67;2.40;;;18.00;57.20;;;;;;4141284;28;20025;-67
2021/05/20 07:17:44;;;;;;;3.50;2.10;;;18.00;57.20;;;;;;4142236;28;20037;-67
2021/05/20 07:19:46;;;;;;;3.15;2.30;;;18.00;57.30;;;;;;4140781;28;20071;-66
2021/05/20 07:21:49;;;;;;;2.85;1.95;;;18.00;57.30;;;;;;4147074;28;20016;-66
2021/05/20 07:23:52;;;;;;;3.08;2.20;;;18.00;57.40;;;;;;4142293;28;20037;-67
2021/05/20 07:25:54;;;;;;;3.20;2.00;;;18.00;57.40;;;;;;4141398;28;20509;-66
2021/05/20 07:27:56;;;;;;;2.78;2.15;;;18.00;58.10;;;;;;4142788;28;20480;-67
2021/05/20 07:29:59;;;;;;;3.35;2.30;;;18.00;57.50;;;;;;4145077;28;20072;-67
2021/05/20 07:32:01;;;;;;;2.80;2.17;;;18.00;57.50;;;;;;4139787;28;20051;-66
2021/05/20 07:34:03;;;;;;;2.63;2.00;;;18.00;57.50;;;;;;4145613;28;20071;-67
2021/05/20 07:36:06;;;;;;;2.72;1.80;;;17.90;57.50;;;;;;4143775;28;20053;-67
2021/05/20 07:38:08;;;;;;;4.57;2.60;;;17.90;57.50;;;;;;4143456;28;20846;-67
2021/05/20 07:40:12;;;;;;;4.30;2.35;;;17.90;57.50;;;;;;4146269;28;20024;-67
2021/05/20 07:42:14;;;;;;;3.55;2.30;;;17.90;58.10;;;;;;4137850;28;20491;-67
2021/05/20 07:44:16;;;;;;;2.60;2.17;;;17.90;57.50;;;;;;4140167;28;20404;-67
2021/05/20 07:46:18;;;;;;;2.88;2.00;;;17.90;57.60;;;;;;4145468;28;20138;-67
2021/05/20 07:48:20;;;;;;;6.03;2.60;;;17.90;57.60;;;;;;4141636;28;20041;-67
2021/05/20 07:50:23;;;;;;;3.30;2.30;;;17.90;57.60;;;;;;4135444;28;20536;-67
2021/05/20 07:52:25;;;;;;;4.13;2.40;;;17.90;57.70;;;;;;4138022;28;20066;-66
2021/05/20 07:54:27;;;;;;;5.38;2.70;;;17.90;57.60;;;;;;4137509;28;20095;-66
2021/05/20 07:56:29;;;;;;;3.90;2.72;;;17.90;57.70;;;;;;4139705;28;20306;-66
2021/05/20 07:58:31;;;;;;;6.20;2.70;;;17.90;57.80;;;;;;4138270;28;21115;-66
2021/05/20 08:00:34;;;;;;;4.05;2.72;;;17.90;57.70;;;;;;4140602;28;20120;-67
2021/05/20 08:04:54;;;;;;;3.63;2.65;;;17.80;57.80;;;;;;4143329;28;20033;-67
2021/05/20 08:07:06;;;;;;;4.75;3.00;;;17.80;57.80;;;;;;4143205;28;20102;-67
2021/05/20 08:09:21;;;;;;;4.53;2.90;;;17.80;57.80;;;;;;4143094;28;20465;-67
2021/05/20 08:11:23;;;;;;;4.63;2.83;;;17.90;57.80;;;;;;4145017;28;20045;-67
2021/05/20 08:13:25;;;;;;;4.85;2.90;;;17.90;57.90;;;;;;4144654;28;20655;-67
2021/05/20 08:15:27;;;;;;;4.75;2.80;;;17.80;57.90;;;;;;4142895;28;20064;-67
2021/05/20 08:17:29;;;;;;;5.78;3.15;;;17.80;57.90;;;;;;4143182;28;20044;-67
2021/05/20 08:19:31;;;;;;;4.68;2.67;;;17.80;57.90;;;;;;4144865;28;20017;-68
2021/05/20 08:21:34;;;;;;;3.30;2.42;;;17.80;58.00;;;;;;4141814;28;20149;-68
2021/05/20 08:23:37;;;;;;;4.87;2.90;;;17.80;58.00;;;;;;4142641;28;20083;-67
2021/05/20 08:25:39;;;;;;;4.63;3.13;;;17.80;57.90;;;;;;4143588;28;20772;-67
2021/05/20 08:27:41;;;;;;;3.70;2.70;;;17.80;57.90;;;;;;4146847;28;20144;-68
2021/05/20 08:29:43;;;;;;;3.65;2.70;;;17.80;58.00;;;;;;4138170;28;20481;-68
2021/05/20 08:31:45;;;;;;;4.28;2.65;;;17.80;58.00;;;;;;4142431;28;21029;-67
2021/05/20 08:33:47;;;;;;;5.55;3.05;;;17.70;58.00;;;;;;4142757;28;21332;-66
2021/05/20 08:35:50;;;;;;;3.70;2.83;;;17.80;58.00;;;;;;4142740;28;20040;-67
2021/05/20 08:37:52;;;;;;;4.13;2.58;;;17.80;58.00;;;;;;4142938;28;20538;-67
2021/05/20 08:39:55;;;;;;;7.85;3.00;;;17.70;58.00;;;;;;4143384;28;20120;-67
2021/05/20 08:41:58;;;;;;;5.07;2.93;;;17.70;58.10;;;;;;4143212;28;20200;-68
2021/05/20 08:44:12;;;;;;;3.75;2.58;;;17.70;58.10;;;;;;4138432;28;20433;-67
2021/05/20 08:46:21;;;;;;;4.95;2.53;;;17.70;58.20;;;;;;4142866;28;20029;-67
2021/05/20 08:48:23;;;;;;;4.63;2.30;;;17.70;58.20;;;;;;4141541;28;20112;-68
2021/05/20 08:50:29;;;;;;;4.20;2.22;;;17.70;58.20;;;;;;4139082;28;20564;-67
2021/05/20 08:52:33;;;;;;;3.17;2.10;;;17.70;58.20;;;;;;4142940;28;20423;-68
2021/05/20 08:54:35;;;;;;;3.35;2.13;;;17.70;58.30;;;;;;4141166;28;20764;-67
2021/05/20 08:56:37;;;;;;;2.95;1.95;;;17.70;58.20;;;;;;4138487;28;20714;-68
2021/05/20 08:58:39;;;;;;;3.85;2.10;;;17.70;58.30;;;;;;4123731;28;20037;-68
2021/05/20 09:00:44;;;;;;;2.65;1.75;;;17.70;58.30;;;;;;4137636;28;20704;-68
2021/05/20 09:02:47;;;;;;;3.25;1.98;;;17.70;58.30;;;;;;4137499;28;20832;-67
2021/05/20 09:05:01;;;;;;;3.05;1.80;;;17.70;58.30;;;;;;4140052;28;20479;-68
2021/05/20 09:07:09;;;;;;;3.45;2.20;;;17.70;58.30;;;;;;4138843;28;20036;-67
2021/05/20 09:09:15;;;;;;;2.92;2.20;;;17.60;58.30;;;;;;4139065;28;20546;-67
2021/05/20 09:11:26;;;;;;;2.72;1.80;;;17.70;58.30;;;;;;4137450;28;20048;-68
2021/05/20 09:13:37;;;;;;;3.67;2.33;;;17.60;58.20;;;;;;4139532;28;20594;-67
2021/05/20 09:15:44;;;;;;;2.75;2.13;;;17.60;58.20;;;;;;4137779;28;20072;-67
2021/05/20 09:17:47;;;;;;;3.45;2.42;;;17.70;58.10;;;;;;4139066;28;20565;-67
2021/05/20 09:20:01;;;;;;;2.95;2.15;;;17.60;57.90;;;;;;4137370;28;20127;-67
2021/05/20 09:22:12;;;;;;;3.35;2.38;;;17.60;58.00;;;;;;4138964;28;20095;-68
2021/05/20 09:24:14;;;;;;;3.22;2.10;;;17.70;58.10;;;;;;4136119;28;20045;-67
2021/05/20 09:26:16;;;;;;;3.58;2.22;;;17.70;58.10;;;;;;4136425;28;20047;-67
2021/05/20 09:28:32;;;;;;;3.30;2.25;;;17.60;58.00;;;;;;4137485;28;20104;-68
2021/05/20 09:30:38;;;;;;;3.75;2.67;;;17.60;58.00;;;;;;4140198;28;20695;-67
2021/05/20 09:33:10;;;;;;;3.20;2.30;;;17.60;58.00;;;;;;4137220;28;20135;-67
2021/05/20 09:35:12;;;;;;;4.70;2.63;;;17.60;57.90;;;;;;4138766;28;20320;-64
2021/05/20 09:37:14;;;;;;;4.10;2.50;;;17.60;58.50;;;;;;4134907;28;20036;-61
2021/05/20 09:39:18;;;;;;;5.68;2.60;;;17.60;56.50;;;;;;4130364;28;20048;-62
2021/05/20 09:41:20;;;;;;;4.75;2.20;;;17.70;56.60;;;;;;4135026;28;20113;-65
2021/05/20 09:43:33;;;;;;;6.50;2.58;;;17.70;56.00;;;;;;4142230;28;20041;-64
2021/05/20 09:45:35;;;;;;;4.38;2.42;;;17.70;56.20;;;;;;4139325;28;20292;-64
2021/05/20 09:47:38;;;;;;;5.53;2.95;;;17.80;56.20;;;;;;4139417;28;20214;-64
2021/05/20 09:50:04;;;;;;;5.07;2.50;;;17.80;56.30;;;;;;4141706;28;20082;-63
2021/05/20 09:52:23;;;;;;;4.78;2.58;;;17.80;56.70;;;;;;4151155;28;20461;-65
2021/05/20 10:00:24;;;;;;;5.10;2.40;;;17.90;56.50;;;;;;4142530;28;20562;-66
2021/05/20 10:02:27;;;;;;;4.85;2.45;;;17.90;56.40;;;;;;4139335;28;20064;-64
2021/05/20 10:04:30;;;;;;;4.25;2.70;;;17.90;56.00;;;;;;4142358;28;20044;-64
2021/05/20 10:06:36;;;;;;;;;;;18.00;56.50;;;;;;4141258;28;20203;-64
2021/05/20 10:08:39;;;;;;;8.50;3.28;;;18.00;56.80;;;;;;4139447;28;20351;-64
2021/05/20 10:10:45;;;;;;;;;;;18.00;57.00;;;;;;4142857;28;20107;-62
2021/05/20 10:12:48;;;;;;;5.35;2.63;;;18.00;57.20;;;;;;4143107;28;21158;-62
2021/05/20 10:14:50;;;;;;;5.82;3.28;;;18.00;57.40;;;;;;4141312;28;20348;-62
2021/05/20 10:16:53;;;;;;;5.00;2.78;;;18.00;57.00;;;;;;4141347;28;20029;-63
2021/05/20 10:18:58;;;;;;;4.43;2.72;;;18.00;57.20;;;;;;4139717;28;20065;-63
2021/05/20 10:21:04;;;;;;;4.63;2.45;;;18.00;57.20;;;;;;4140412;28;20056;-63
2021/05/20 10:23:14;;;;;;;4.03;2.30;;;18.00;57.20;;;;;;4138988;28;20045;-63
2021/05/20 10:25:20;;;;;;;5.03;2.60;;;18.10;57.60;;;;;;4142823;28;20394;-63
2021/05/20 10:27:22;;;;;;;4.97;2.83;;;18.10;58.00;;;;;;4140804;28;20140;-62
2021/05/20 10:29:24;;;;;;;3.55;2.47;;;18.10;58.20;;;;;;4139627;28;20041;-63
2021/05/20 10:31:26;;;;;;;3.78;2.28;;;18.10;58.30;;;;;;4143636;28;20120;-64
2021/05/20 10:33:30;;;;;;;4.00;2.25;;;18.10;58.10;;;;;;4139494;28;20041;-62
2021/05/20 10:35:45;;;;;;;4.13;2.15;;;18.10;57.80;;;;;;4142272;28;20048;-64
2021/05/20 10:37:56;;;;;;;3.30;2.38;;;18.10;58.20;;;;;;4138915;28;21283;-66
2021/05/20 10:39:58;;;;;;;3.28;2.20;;;18.10;58.10;;;;;;4141691;28;20029;-64
2021/05/20 10:42:00;;;;;;;4.78;2.40;;;18.10;58.10;;;;;;4140709;28;20431;-64
2021/05/20 10:44:06;;;;;;;2.95;2.08;;;18.10;58.20;;;;;;4138813;28;20037;-65
2021/05/20 10:46:13;;;;;;;3.22;2.10;;;18.10;58.10;;;;;;4145406;28;20811;-64
2021/05/20 10:48:15;;;;;;;3.15;2.10;;;18.10;58.40;;;;;;4144206;28;20128;-62
2021/05/20 10:50:17;;;;;;;2.92;1.98;;;18.10;58.40;;;;;;4144195;28;20176;-63
2021/05/20 10:52:38;;;;;;;3.22;1.90;;;18.10;58.50;;;;;;4145803;28;20288;-63
2021/05/20 10:55:00;;;;;;;3.72;2.08;;;18.10;58.30;;;;;;4142278;28;20522;-63